sensor_id;sensor_type;location;lat;lon;timestamp;P1;durP1;ratioP1;P2;durP2;ratioP2
42972;SDS011;28610;51.214;6.962;2023-04-15T00:02:28;11.27;;;6.10;;
42972;SDS011;28610;51.214;6.962;2023-04-15T00:05:14;13.67;;;6.50;;
42972;SDS011;28610;51.214;6.962;2023-04-15T00:08:00;13.60;;;6.60;;
42972;SDS011;28610;51.214;6.962;2023-04-15T00:10:47;14.20;;;6.63;;
42972;SDS011;28610;51.214;6.962;2023-04-15T00:13:33;12.00;;;6.43;;
42972;SDS011;28610;51.214;6.962;2023-04-15T00:16:19;12.37;;;6.33;;
42972;SDS011;28610;51.214;6.962;2023-04-15T00:19:04;10.23;;;5.93;;
42972;SDS011;28610;51.214;6.962;2023-04-15T00:21:50;13.80;;;6.73;;
42972;SDS011;28610;51.214;6.962;2023-04-15T00:24:36;15.80;;;6.60;;
42972;SDS011;28610;51.214;6.962;2023-04-15T00:27:23;12.33;;;6.40;;
42972;SDS011;28610;51.214;6.962;2023-04-15T00:30:09;13.07;;;6.30;;
42972;SDS011;28610;51.214;6.962;2023-04-15T00:32:54;14.10;;;6.97;;
42972;SDS011;28610;51.214;6.962;2023-04-15T00:35:40;12.90;;;7.40;;
42972;SDS011;28610;51.214;6.962;2023-04-15T00:38:26;12.13;;;6.10;;
42972;SDS011;28610;51.214;6.962;2023-04-15T00:41:11;13.90;;;6.90;;
42972;SDS011;28610;51.214;6.962;2023-04-15T00:43:58;12.43;;;6.70;;
42972;SDS011;28610;51.214;6.962;2023-04-15T00:46:44;16.37;;;6.50;;
42972;SDS011;28610;51.214;6.962;2023-04-15T00:49:31;12.10;;;6.50;;
42972;SDS011;28610;51.214;6.962;2023-04-15T00:52:17;11.57;;;6.70;;
42972;SDS011;28610;51.214;6.962;2023-04-15T00:55:02;14.30;;;6.60;;
42972;SDS011;28610;51.214;6.962;2023-04-15T00:57:49;15.90;;;6.63;;
42972;SDS011;28610;51.214;6.962;2023-04-15T01:00:36;12.53;;;6.50;;
42972;SDS011;28610;51.214;6.962;2023-04-15T01:03:21;14.20;;;6.50;;
42972;SDS011;28610;51.214;6.962;2023-04-15T01:06:07;13.93;;;6.80;;
42972;SDS011;28610;51.214;6.962;2023-04-15T01:08:54;11.20;;;6.73;;
42972;SDS011;28610;51.214;6.962;2023-04-15T01:11:41;18.50;;;6.93;;
42972;SDS011;28610;51.214;6.962;2023-04-15T01:14:27;14.60;;;7.07;;
42972;SDS011;28610;51.214;6.962;2023-04-15T01:17:14;13.60;;;6.67;;
42972;SDS011;28610;51.214;6.962;2023-04-15T01:20:00;13.33;;;6.63;;
42972;SDS011;28610;51.214;6.962;2023-04-15T01:22:46;15.53;;;7.00;;
42972;SDS011;28610;51.214;6.962;2023-04-15T01:25:33;13.83;;;7.13;;
42972;SDS011;28610;51.214;6.962;2023-04-15T01:28:19;12.07;;;6.83;;
42972;SDS011;28610;51.214;6.962;2023-04-15T01:31:05;15.83;;;7.07;;
42972;SDS011;28610;51.214;6.962;2023-04-15T01:33:51;12.23;;;6.90;;
42972;SDS011;28610;51.214;6.962;2023-04-15T01:36:36;14.17;;;7.17;;
42972;SDS011;28610;51.214;6.962;2023-04-15T01:39:22;15.37;;;6.90;;
42972;SDS011;28610;51.214;6.962;2023-04-15T01:42:09;12.13;;;7.20;;
42972;SDS011;28610;51.214;6.962;2023-04-15T01:44:54;13.37;;;7.30;;
42972;SDS011;28610;51.214;6.962;2023-04-15T01:47:40;14.50;;;7.77;;
42972;SDS011;28610;51.214;6.962;2023-04-15T01:50:26;15.97;;;7.70;;
42972;SDS011;28610;51.214;6.962;2023-04-15T01:53:11;11.87;;;7.20;;
42972;SDS011;28610;51.214;6.962;2023-04-15T01:55:58;12.33;;;7.97;;
42972;SDS011;28610;51.214;6.962;2023-04-15T01:58:45;14.90;;;8.40;;
42972;SDS011;28610;51.214;6.962;2023-04-15T02:01:31;13.90;;;7.67;;
42972;SDS011;28610;51.214;6.962;2023-04-15T02:04:17;14.90;;;8.20;;
42972;SDS011;28610;51.214;6.962;2023-04-15T02:07:03;15.90;;;8.17;;
42972;SDS011;28610;51.214;6.962;2023-04-15T02:09:49;14.80;;;7.70;;
42972;SDS011;28610;51.214;6.962;2023-04-15T02:12:36;11.87;;;7.13;;
42972;SDS011;28610;51.214;6.962;2023-04-15T02:15:23;17.07;;;8.30;;
42972;SDS011;28610;51.214;6.962;2023-04-15T02:18:08;13.70;;;7.83;;
42972;SDS011;28610;51.214;6.962;2023-04-15T02:20:54;15.73;;;8.57;;
42972;SDS011;28610;51.214;6.962;2023-04-15T02:23:41;16.27;;;8.00;;
42972;SDS011;28610;51.214;6.962;2023-04-15T02:26:27;10.43;;;7.40;;
42972;SDS011;28610;51.214;6.962;2023-04-15T02:29:15;14.60;;;8.10;;
42972;SDS011;28610;51.214;6.962;2023-04-15T02:32:02;15.00;;;8.00;;
42972;SDS011;28610;51.214;6.962;2023-04-15T02:34:47;14.83;;;8.17;;
42972;SDS011;28610;51.214;6.962;2023-04-15T02:37:34;17.43;;;9.20;;
42972;SDS011;28610;51.214;6.962;2023-04-15T02:40:24;14.87;;;8.33;;
42972;SDS011;28610;51.214;6.962;2023-04-15T02:43:10;12.03;;;7.93;;
42972;SDS011;28610;51.214;6.962;2023-04-15T02:45:55;15.30;;;8.17;;
42972;SDS011;28610;51.214;6.962;2023-04-15T02:48:42;16.07;;;8.73;;
42972;SDS011;28610;51.214;6.962;2023-04-15T02:51:29;14.73;;;8.57;;
42972;SDS011;28610;51.214;6.962;2023-04-15T02:54:15;16.43;;;8.37;;
42972;SDS011;28610;51.214;6.962;2023-04-15T02:57:01;13.60;;;7.87;;
42972;SDS011;28610;51.214;6.962;2023-04-15T02:59:49;16.17;;;8.77;;
42972;SDS011;28610;51.214;6.962;2023-04-15T03:02:35;13.87;;;8.63;;
42972;SDS011;28610;51.214;6.962;2023-04-15T03:05:22;15.83;;;8.30;;
42972;SDS011;28610;51.214;6.962;2023-04-15T03:08:08;18.03;;;9.00;;
42972;SDS011;28610;51.214;6.962;2023-04-15T03:10:54;14.60;;;8.70;;
42972;SDS011;28610;51.214;6.962;2023-04-15T03:13:40;17.53;;;9.27;;
42972;SDS011;28610;51.214;6.962;2023-04-15T03:16:25;16.60;;;9.53;;
42972;SDS011;28610;51.214;6.962;2023-04-15T03:19:11;15.20;;;8.77;;
42972;SDS011;28610;51.214;6.962;2023-04-15T03:21:58;20.93;;;9.07;;
42972;SDS011;28610;51.214;6.962;2023-04-15T03:24:43;15.40;;;8.93;;
42972;SDS011;28610;51.214;6.962;2023-04-15T03:27:29;14.13;;;8.70;;
42972;SDS011;28610;51.214;6.962;2023-04-15T03:30:15;18.80;;;9.13;;
42972;SDS011;28610;51.214;6.962;2023-04-15T03:33:00;16.47;;;8.90;;
42972;SDS011;28610;51.214;6.962;2023-04-15T03:35:46;15.33;;;9.53;;
42972;SDS011;28610;51.214;6.962;2023-04-15T03:38:33;16.67;;;9.60;;
42972;SDS011;28610;51.214;6.962;2023-04-15T03:41:19;16.33;;;9.57;;
42972;SDS011;28610;51.214;6.962;2023-04-15T03:44:05;17.27;;;10.07;;
42972;SDS011;28610;51.214;6.962;2023-04-15T03:46:50;19.07;;;9.53;;
42972;SDS011;28610;51.214;6.962;2023-04-15T03:49:36;16.10;;;9.43;;
42972;SDS011;28610;51.214;6.962;2023-04-15T03:52:22;17.53;;;10.33;;
42972;SDS011;28610;51.214;6.962;2023-04-15T03:55:09;15.53;;;9.40;;
42972;SDS011;28610;51.214;6.962;2023-04-15T03:57:55;16.70;;;10.00;;
42972;SDS011;28610;51.214;6.962;2023-04-15T04:00:40;18.83;;;9.97;;
42972;SDS011;28610;51.214;6.962;2023-04-15T04:03:26;17.27;;;10.10;;
42972;SDS011;28610;51.214;6.962;2023-04-15T04:06:11;15.63;;;9.97;;
42972;SDS011;28610;51.214;6.962;2023-04-15T04:08:57;17.77;;;11.00;;
42972;SDS011;28610;51.214;6.962;2023-04-15T04:11:45;19.07;;;10.73;;
42972;SDS011;28610;51.214;6.962;2023-04-15T04:14:32;20.40;;;10.97;;
42972;SDS011;28610;51.214;6.962;2023-04-15T04:17:17;16.40;;;11.17;;
42972;SDS011;28610;51.214;6.962;2023-04-15T04:20:03;17.00;;;10.40;;
42972;SDS011;28610;51.214;6.962;2023-04-15T04:22:49;19.97;;;10.97;;
42972;SDS011;28610;51.214;6.962;2023-04-15T04:25:35;20.10;;;11.30;;
42972;SDS011;28610;51.214;6.962;2023-04-15T04:28:22;20.43;;;11.13;;
42972;SDS011;28610;51.214;6.962;2023-04-15T04:31:07;24.10;;;12.00;;
42972;SDS011;28610;51.214;6.962;2023-04-15T04:33:53;23.83;;;12.77;;
42972;SDS011;28610;51.214;6.962;2023-04-15T04:36:39;23.40;;;12.70;;
42972;SDS011;28610;51.214;6.962;2023-04-15T04:39:24;26.53;;;13.47;;
42972;SDS011;28610;51.214;6.962;2023-04-15T04:42:10;28.87;;;13.33;;
42972;SDS011;28610;51.214;6.962;2023-04-15T04:44:57;24.57;;;13.13;;
42972;SDS011;28610;51.214;6.962;2023-04-15T04:47:42;22.20;;;13.90;;
42972;SDS011;28610;51.214;6.962;2023-04-15T04:50:28;22.80;;;12.07;;
42972;SDS011;28610;51.214;6.962;2023-04-15T04:53:14;21.83;;;12.30;;
42972;SDS011;28610;51.214;6.962;2023-04-15T04:56:00;19.10;;;11.50;;
42972;SDS011;28610;51.214;6.962;2023-04-15T04:58:46;18.60;;;11.97;;
42972;SDS011;28610;51.214;6.962;2023-04-15T05:01:33;29.63;;;12.00;;
42972;SDS011;28610;51.214;6.962;2023-04-15T05:04:19;20.33;;;12.17;;
42972;SDS011;28610;51.214;6.962;2023-04-15T05:07:04;25.40;;;12.57;;
42972;SDS011;28610;51.214;6.962;2023-04-15T05:09:50;23.80;;;11.90;;
42972;SDS011;28610;51.214;6.962;2023-04-15T05:12:36;26.83;;;13.10;;
42972;SDS011;28610;51.214;6.962;2023-04-15T05:15:22;31.50;;;14.07;;
42972;SDS011;28610;51.214;6.962;2023-04-15T05:18:09;29.90;;;14.03;;
42972;SDS011;28610;51.214;6.962;2023-04-15T05:20:55;27.30;;;13.83;;
42972;SDS011;28610;51.214;6.962;2023-04-15T05:23:40;24.23;;;12.23;;
42972;SDS011;28610;51.214;6.962;2023-04-15T05:26:26;24.87;;;12.07;;
42972;SDS011;28610;51.214;6.962;2023-04-15T05:29:12;23.13;;;11.87;;
42972;SDS011;28610;51.214;6.962;2023-04-15T05:31:57;19.57;;;11.23;;
42972;SDS011;28610;51.214;6.962;2023-04-15T05:34:44;20.10;;;11.63;;
42972;SDS011;28610;51.214;6.962;2023-04-15T05:37:30;22.37;;;12.23;;
42972;SDS011;28610;51.214;6.962;2023-04-15T05:40:16;21.17;;;12.27;;
42972;SDS011;28610;51.214;6.962;2023-04-15T05:43:02;20.10;;;12.80;;
42972;SDS011;28610;51.214;6.962;2023-04-15T05:45:48;25.47;;;12.57;;
42972;SDS011;28610;51.214;6.962;2023-04-15T05:48:33;24.53;;;12.43;;
42972;SDS011;28610;51.214;6.962;2023-04-15T05:51:20;19.50;;;11.37;;
42972;SDS011;28610;51.214;6.962;2023-04-15T05:54:06;20.20;;;12.10;;
42972;SDS011;28610;51.214;6.962;2023-04-15T05:56:52;21.50;;;12.27;;
42972;SDS011;28610;51.214;6.962;2023-04-15T05:59:38;19.43;;;11.90;;
42972;SDS011;28610;51.214;6.962;2023-04-15T06:02:24;23.23;;;12.27;;
42972;SDS011;28610;51.214;6.962;2023-04-15T06:05:10;21.27;;;12.43;;
42972;SDS011;28610;51.214;6.962;2023-04-15T06:07:58;22.07;;;12.70;;
42972;SDS011;28610;51.214;6.962;2023-04-15T06:10:44;28.57;;;13.83;;
42972;SDS011;28610;51.214;6.962;2023-04-15T06:13:29;27.53;;;13.07;;
42972;SDS011;28610;51.214;6.962;2023-04-15T06:16:16;25.17;;;13.70;;
42972;SDS011;28610;51.214;6.962;2023-04-15T06:19:02;24.97;;;13.00;;
42972;SDS011;28610;51.214;6.962;2023-04-15T06:21:47;28.37;;;14.70;;
42972;SDS011;28610;51.214;6.962;2023-04-15T06:24:34;26.20;;;13.57;;
42972;SDS011;28610;51.214;6.962;2023-04-15T06:27:20;21.53;;;12.00;;
42972;SDS011;28610;51.214;6.962;2023-04-15T06:30:07;20.47;;;12.10;;
42972;SDS011;28610;51.214;6.962;2023-04-15T06:32:53;20.10;;;11.80;;
42972;SDS011;28610;51.214;6.962;2023-04-15T06:35:39;22.93;;;11.73;;
42972;SDS011;28610;51.214;6.962;2023-04-15T06:38:25;20.73;;;12.30;;
42972;SDS011;28610;51.214;6.962;2023-04-15T06:41:12;22.17;;;11.33;;
42972;SDS011;28610;51.214;6.962;2023-04-15T06:43:58;18.53;;;10.80;;
42972;SDS011;28610;51.214;6.962;2023-04-15T06:46:44;18.50;;;9.63;;
42972;SDS011;28610;51.214;6.962;2023-04-15T06:49:29;18.03;;;10.60;;
42972;SDS011;28610;51.214;6.962;2023-04-15T06:52:16;13.57;;;8.73;;
42972;SDS011;28610;51.214;6.962;2023-04-15T06:55:02;16.20;;;9.07;;
42972;SDS011;28610;51.214;6.962;2023-04-15T06:57:49;13.37;;;8.23;;
42972;SDS011;28610;51.214;6.962;2023-04-15T07:00:35;14.90;;;8.67;;
42972;SDS011;28610;51.214;6.962;2023-04-15T07:03:21;15.20;;;8.97;;
42972;SDS011;28610;51.214;6.962;2023-04-15T07:06:07;14.47;;;8.87;;
42972;SDS011;28610;51.214;6.962;2023-04-15T07:08:53;14.33;;;8.80;;
42972;SDS011;28610;51.214;6.962;2023-04-15T07:11:40;15.43;;;9.03;;
42972;SDS011;28610;51.214;6.962;2023-04-15T07:14:26;13.87;;;9.27;;
42972;SDS011;28610;51.214;6.962;2023-04-15T07:17:13;14.80;;;8.90;;
42972;SDS011;28610;51.214;6.962;2023-04-15T07:19:59;16.20;;;9.60;;
42972;SDS011;28610;51.214;6.962;2023-04-15T07:22:44;17.17;;;9.77;;
42972;SDS011;28610;51.214;6.962;2023-04-15T07:25:30;13.93;;;8.90;;
42972;SDS011;28610;51.214;6.962;2023-04-15T07:28:16;14.30;;;8.37;;
42972;SDS011;28610;51.214;6.962;2023-04-15T07:31:03;15.00;;;8.83;;
42972;SDS011;28610;51.214;6.962;2023-04-15T07:33:49;13.03;;;8.80;;
42972;SDS011;28610;51.214;6.962;2023-04-15T07:36:34;14.73;;;8.90;;
42972;SDS011;28610;51.214;6.962;2023-04-15T07:39:20;15.23;;;9.13;;
42972;SDS011;28610;51.214;6.962;2023-04-15T07:42:06;14.83;;;8.90;;
42972;SDS011;28610;51.214;6.962;2023-04-15T07:44:52;12.23;;;8.40;;
42972;SDS011;28610;51.214;6.962;2023-04-15T07:47:40;11.57;;;6.87;;
42972;SDS011;28610;51.214;6.962;2023-04-15T07:50:26;11.77;;;7.00;;
42972;SDS011;28610;51.214;6.962;2023-04-15T07:53:12;11.30;;;6.63;;
42972;SDS011;28610;51.214;6.962;2023-04-15T07:55:58;10.03;;;6.60;;
42972;SDS011;28610;51.214;6.962;2023-04-15T07:58:43;12.17;;;6.50;;
42972;SDS011;28610;51.214;6.962;2023-04-15T08:01:29;9.87;;;6.37;;
42972;SDS011;28610;51.214;6.962;2023-04-15T08:04:16;10.20;;;6.30;;
42972;SDS011;28610;51.214;6.962;2023-04-15T08:07:02;10.70;;;6.70;;
42972;SDS011;28610;51.214;6.962;2023-04-15T08:09:48;11.23;;;7.50;;
42972;SDS011;28610;51.214;6.962;2023-04-15T08:12:34;11.30;;;7.10;;
42972;SDS011;28610;51.214;6.962;2023-04-15T08:15:20;10.17;;;6.73;;
42972;SDS011;28610;51.214;6.962;2023-04-15T08:18:06;12.10;;;7.07;;
42972;SDS011;28610;51.214;6.962;2023-04-15T08:20:53;10.47;;;7.03;;
42972;SDS011;28610;51.214;6.962;2023-04-15T08:23:38;9.30;;;6.00;;
42972;SDS011;28610;51.214;6.962;2023-04-15T08:26:25;9.40;;;6.07;;
42972;SDS011;28610;51.214;6.962;2023-04-15T08:29:10;10.83;;;6.50;;
42972;SDS011;28610;51.214;6.962;2023-04-15T08:31:56;10.43;;;6.23;;
42972;SDS011;28610;51.214;6.962;2023-04-15T08:34:42;10.10;;;5.97;;
42972;SDS011;28610;51.214;6.962;2023-04-15T08:37:28;11.57;;;5.90;;
42972;SDS011;28610;51.214;6.962;2023-04-15T08:40:14;11.87;;;6.93;;
42972;SDS011;28610;51.214;6.962;2023-04-15T08:43:00;10.33;;;7.23;;
42972;SDS011;28610;51.214;6.962;2023-04-15T08:45:47;10.80;;;7.00;;
42972;SDS011;28610;51.214;6.962;2023-04-15T08:48:35;11.70;;;7.37;;
42972;SDS011;28610;51.214;6.962;2023-04-15T08:51:24;11.43;;;7.03;;
42972;SDS011;28610;51.214;6.962;2023-04-15T08:54:11;11.57;;;7.43;;
42972;SDS011;28610;51.214;6.962;2023-04-15T08:56:57;13.17;;;7.13;;
42972;SDS011;28610;51.214;6.962;2023-04-15T08:59:43;12.10;;;6.93;;
42972;SDS011;28610;51.214;6.962;2023-04-15T09:02:29;11.37;;;6.63;;
42972;SDS011;28610;51.214;6.962;2023-04-15T09:05:15;13.40;;;6.83;;
42972;SDS011;28610;51.214;6.962;2023-04-15T09:08:01;10.83;;;6.63;;
42972;SDS011;28610;51.214;6.962;2023-04-15T09:10:48;11.57;;;6.40;;
42972;SDS011;28610;51.214;6.962;2023-04-15T09:13:34;9.83;;;6.20;;
42972;SDS011;28610;51.214;6.962;2023-04-15T09:16:20;9.77;;;6.60;;
42972;SDS011;28610;51.214;6.962;2023-04-15T09:19:19;11.33;;;6.30;;
42972;SDS011;28610;51.214;6.962;2023-04-15T09:22:05;10.17;;;6.73;;
42972;SDS011;28610;51.214;6.962;2023-04-15T09:24:50;10.37;;;6.47;;
42972;SDS011;28610;51.214;6.962;2023-04-15T09:27:37;9.60;;;6.47;;
42972;SDS011;28610;51.214;6.962;2023-04-15T09:30:32;10.60;;;6.47;;
42972;SDS011;28610;51.214;6.962;2023-04-15T09:33:19;12.20;;;6.03;;
42972;SDS011;28610;51.214;6.962;2023-04-15T09:36:05;10.30;;;6.00;;
42972;SDS011;28610;51.214;6.962;2023-04-15T09:38:54;9.17;;;5.90;;
42972;SDS011;28610;51.214;6.962;2023-04-15T09:41:41;9.67;;;6.00;;
42972;SDS011;28610;51.214;6.962;2023-04-15T09:44:29;9.43;;;5.83;;
42972;SDS011;28610;51.214;6.962;2023-04-15T09:47:25;8.17;;;5.47;;
42972;SDS011;28610;51.214;6.962;2023-04-15T09:50:11;11.63;;;6.90;;
42972;SDS011;28610;51.214;6.962;2023-04-15T09:52:57;8.03;;;4.90;;
42972;SDS011;28610;51.214;6.962;2023-04-15T09:55:44;6.93;;;4.73;;
42972;SDS011;28610;51.214;6.962;2023-04-15T09:58:31;7.37;;;4.90;;
42972;SDS011;28610;51.214;6.962;2023-04-15T10:01:19;7.63;;;5.03;;
42972;SDS011;28610;51.214;6.962;2023-04-15T10:04:05;9.63;;;4.70;;
42972;SDS011;28610;51.214;6.962;2023-04-15T10:06:51;8.37;;;4.90;;
42972;SDS011;28610;51.214;6.962;2023-04-15T10:09:37;7.63;;;4.83;;
42972;SDS011;28610;51.214;6.962;2023-04-15T10:12:22;7.57;;;5.03;;
42972;SDS011;28610;51.214;6.962;2023-04-15T10:15:11;8.57;;;4.93;;
42972;SDS011;28610;51.214;6.962;2023-04-15T10:18:00;8.23;;;5.30;;
42972;SDS011;28610;51.214;6.962;2023-04-15T10:20:48;6.47;;;4.65;;
42972;SDS011;28610;51.214;6.962;2023-04-15T10:23:34;7.22;;;4.93;;
42972;SDS011;28610;51.214;6.962;2023-04-15T10:26:20;8.68;;;5.18;;
42972;SDS011;28610;51.214;6.962;2023-04-15T10:29:06;8.95;;;4.93;;
42972;SDS011;28610;51.214;6.962;2023-04-15T10:31:53;7.90;;;5.20;;
42972;SDS011;28610;51.214;6.962;2023-04-15T10:34:40;8.10;;;5.00;;
42972;SDS011;28610;51.214;6.962;2023-04-15T10:37:32;8.38;;;5.35;;
42972;SDS011;28610;51.214;6.962;2023-04-15T10:40:25;7.15;;;5.07;;
42972;SDS011;28610;51.214;6.962;2023-04-15T10:43:11;25.63;;;15.30;;
42972;SDS011;28610;51.214;6.962;2023-04-15T10:46:09;11.90;;;7.57;;
42972;SDS011;28610;51.214;6.962;2023-04-15T10:48:54;8.70;;;5.27;;
42972;SDS011;28610;51.214;6.962;2023-04-15T10:51:42;8.47;;;5.30;;
42972;SDS011;28610;51.214;6.962;2023-04-15T10:54:31;11.15;;;7.25;;
42972;SDS011;28610;51.214;6.962;2023-04-15T10:57:20;15.43;;;10.05;;
42972;SDS011;28610;51.214;6.962;2023-04-15T11:00:10;8.23;;;6.20;;
42972;SDS011;28610;51.214;6.962;2023-04-15T11:02:57;7.40;;;5.30;;
42972;SDS011;28610;51.214;6.962;2023-04-15T11:05:49;6.97;;;5.30;;
42972;SDS011;28610;51.214;6.962;2023-04-15T11:08:56;7.40;;;4.87;;
42972;SDS011;28610;51.214;6.962;2023-04-15T11:12:04;8.27;;;6.67;;
42972;SDS011;28610;51.214;6.962;2023-04-15T11:14:51;7.67;;;6.07;;
42972;SDS011;28610;51.214;6.962;2023-04-15T11:17:36;7.20;;;5.87;;
42972;SDS011;28610;51.214;6.962;2023-04-15T11:20:22;8.93;;;6.37;;
42972;SDS011;28610;51.214;6.962;2023-04-15T11:23:08;10.17;;;6.93;;
42972;SDS011;28610;51.214;6.962;2023-04-15T11:25:56;9.33;;;7.10;;
42972;SDS011;28610;51.214;6.962;2023-04-15T11:28:43;10.07;;;7.40;;
42972;SDS011;28610;51.214;6.962;2023-04-15T11:31:29;9.53;;;7.07;;
42972;SDS011;28610;51.214;6.962;2023-04-15T11:34:19;10.00;;;6.97;;
42972;SDS011;28610;51.214;6.962;2023-04-15T11:37:07;10.47;;;7.23;;
42972;SDS011;28610;51.214;6.962;2023-04-15T11:39:54;10.83;;;7.80;;
42972;SDS011;28610;51.214;6.962;2023-04-15T11:42:41;12.53;;;9.63;;
42972;SDS011;28610;51.214;6.962;2023-04-15T11:45:26;26.20;;;19.87;;
42972;SDS011;28610;51.214;6.962;2023-04-15T11:48:12;19.67;;;13.97;;
42972;SDS011;28610;51.214;6.962;2023-04-15T11:50:58;32.97;;;18.83;;
42972;SDS011;28610;51.214;6.962;2023-04-15T11:53:45;12.27;;;9.17;;
42972;SDS011;28610;51.214;6.962;2023-04-15T11:56:30;11.57;;;9.57;;
42972;SDS011;28610;51.214;6.962;2023-04-15T11:59:17;11.23;;;9.90;;
42972;SDS011;28610;51.214;6.962;2023-04-15T12:02:10;11.30;;;9.33;;
42972;SDS011;28610;51.214;6.962;2023-04-15T12:05:01;11.00;;;8.20;;
42972;SDS011;28610;51.214;6.962;2023-04-15T12:07:56;11.53;;;8.37;;
42972;SDS011;28610;51.214;6.962;2023-04-15T12:10:42;15.00;;;9.90;;
42972;SDS011;28610;51.214;6.962;2023-04-15T12:13:27;13.53;;;9.47;;
42972;SDS011;28610;51.214;6.962;2023-04-15T12:16:16;11.50;;;8.53;;
42972;SDS011;28610;51.214;6.962;2023-04-15T12:19:04;11.80;;;8.50;;
42972;SDS011;28610;51.214;6.962;2023-04-15T12:21:50;10.17;;;8.43;;
42972;SDS011;28610;51.214;6.962;2023-04-15T12:24:37;9.60;;;7.70;;
42972;SDS011;28610;51.214;6.962;2023-04-15T12:27:24;11.33;;;7.30;;
42972;SDS011;28610;51.214;6.962;2023-04-15T12:30:11;10.37;;;6.67;;
42972;SDS011;28610;51.214;6.962;2023-04-15T12:32:58;9.67;;;6.77;;
42972;SDS011;28610;51.214;6.962;2023-04-15T12:35:44;16.73;;;7.33;;
42972;SDS011;28610;51.214;6.962;2023-04-15T12:38:29;9.63;;;6.63;;
42972;SDS011;28610;51.214;6.962;2023-04-15T12:41:15;10.00;;;6.40;;
42972;SDS011;28610;51.214;6.962;2023-04-15T12:44:00;10.77;;;6.67;;
42972;SDS011;28610;51.214;6.962;2023-04-15T12:46:46;10.00;;;6.70;;
42972;SDS011;28610;51.214;6.962;2023-04-15T12:49:33;11.27;;;7.20;;
42972;SDS011;28610;51.214;6.962;2023-04-15T12:52:19;11.27;;;7.40;;
42972;SDS011;28610;51.214;6.962;2023-04-15T12:55:04;9.63;;;7.00;;
42972;SDS011;28610;51.214;6.962;2023-04-15T12:57:50;8.70;;;6.30;;
42972;SDS011;28610;51.214;6.962;2023-04-15T13:00:36;9.50;;;6.10;;
42972;SDS011;28610;51.214;6.962;2023-04-15T13:03:22;7.53;;;5.40;;
42972;SDS011;28610;51.214;6.962;2023-04-15T13:06:09;8.10;;;5.13;;
42972;SDS011;28610;51.214;6.962;2023-04-15T13:08:55;8.43;;;5.63;;
42972;SDS011;28610;51.214;6.962;2023-04-15T13:11:41;8.73;;;5.40;;
42972;SDS011;28610;51.214;6.962;2023-04-15T13:14:27;7.13;;;5.20;;
42972;SDS011;28610;51.214;6.962;2023-04-15T13:17:13;9.47;;;5.63;;
42972;SDS011;28610;51.214;6.962;2023-04-15T13:20:01;8.93;;;5.13;;
42972;SDS011;28610;51.214;6.962;2023-04-15T13:22:48;9.20;;;5.73;;
42972;SDS011;28610;51.214;6.962;2023-04-15T13:25:34;8.47;;;5.30;;
42972;SDS011;28610;51.214;6.962;2023-04-15T13:28:20;8.93;;;5.40;;
42972;SDS011;28610;51.214;6.962;2023-04-15T13:31:05;8.00;;;5.47;;
42972;SDS011;28610;51.214;6.962;2023-04-15T13:33:51;6.77;;;5.23;;
42972;SDS011;28610;51.214;6.962;2023-04-15T13:36:36;10.03;;;5.57;;
42972;SDS011;28610;51.214;6.962;2023-04-15T13:39:24;9.00;;;5.47;;
42972;SDS011;28610;51.214;6.962;2023-04-15T13:42:09;9.60;;;5.10;;
42972;SDS011;28610;51.214;6.962;2023-04-15T13:44:55;8.90;;;5.17;;
42972;SDS011;28610;51.214;6.962;2023-04-15T13:47:40;7.77;;;5.43;;
42972;SDS011;28610;51.214;6.962;2023-04-15T13:50:26;7.67;;;5.30;;
42972;SDS011;28610;51.214;6.962;2023-04-15T13:53:12;6.63;;;4.80;;
42972;SDS011;28610;51.214;6.962;2023-04-15T13:55:58;8.33;;;5.13;;
42972;SDS011;28610;51.214;6.962;2023-04-15T13:58:44;8.33;;;5.23;;
42972;SDS011;28610;51.214;6.962;2023-04-15T14:01:30;8.63;;;4.97;;
42972;SDS011;28610;51.214;6.962;2023-04-15T14:04:15;7.97;;;5.00;;
42972;SDS011;28610;51.214;6.962;2023-04-15T14:07:02;8.13;;;5.00;;
42972;SDS011;28610;51.214;6.962;2023-04-15T14:09:47;8.23;;;4.80;;
42972;SDS011;28610;51.214;6.962;2023-04-15T14:12:34;9.13;;;5.27;;
42972;SDS011;28610;51.214;6.962;2023-04-15T14:15:20;7.97;;;5.10;;
42972;SDS011;28610;51.214;6.962;2023-04-15T14:18:06;8.27;;;5.20;;
42972;SDS011;28610;51.214;6.962;2023-04-15T14:20:52;11.47;;;5.10;;
42972;SDS011;28610;51.214;6.962;2023-04-15T14:23:37;8.30;;;4.90;;
42972;SDS011;28610;51.214;6.962;2023-04-15T14:26:23;10.97;;;4.83;;
42972;SDS011;28610;51.214;6.962;2023-04-15T14:29:10;10.27;;;6.40;;
42972;SDS011;28610;51.214;6.962;2023-04-15T14:31:55;9.97;;;6.20;;
42972;SDS011;28610;51.214;6.962;2023-04-15T14:34:41;10.53;;;6.90;;
42972;SDS011;28610;51.214;6.962;2023-04-15T14:37:27;10.00;;;5.77;;
42972;SDS011;28610;51.214;6.962;2023-04-15T14:40:12;12.33;;;6.10;;
42972;SDS011;28610;51.214;6.962;2023-04-15T14:42:58;12.77;;;7.37;;
42972;SDS011;28610;51.214;6.962;2023-04-15T14:45:45;8.80;;;5.53;;
42972;SDS011;28610;51.214;6.962;2023-04-15T14:48:31;7.67;;;5.03;;
42972;SDS011;28610;51.214;6.962;2023-04-15T14:51:17;9.00;;;5.70;;
42972;SDS011;28610;51.214;6.962;2023-04-15T14:54:02;9.67;;;5.20;;
42972;SDS011;28610;51.214;6.962;2023-04-15T14:56:48;8.47;;;5.20;;
42972;SDS011;28610;51.214;6.962;2023-04-15T14:59:33;9.33;;;5.20;;
42972;SDS011;28610;51.214;6.962;2023-04-15T15:02:20;14.57;;;6.87;;
42972;SDS011;28610;51.214;6.962;2023-04-15T15:05:06;8.73;;;5.30;;
42972;SDS011;28610;51.214;6.962;2023-04-15T15:07:52;9.93;;;5.27;;
42972;SDS011;28610;51.214;6.962;2023-04-15T15:10:37;8.70;;;4.93;;
42972;SDS011;28610;51.214;6.962;2023-04-15T15:13:24;7.63;;;4.87;;
42972;SDS011;28610;51.214;6.962;2023-04-15T15:16:10;7.30;;;5.10;;
42972;SDS011;28610;51.214;6.962;2023-04-15T15:18:57;7.40;;;4.87;;
42972;SDS011;28610;51.214;6.962;2023-04-15T15:21:42;8.33;;;4.70;;
42972;SDS011;28610;51.214;6.962;2023-04-15T15:24:28;7.53;;;4.63;;
42972;SDS011;28610;51.214;6.962;2023-04-15T15:27:14;9.07;;;4.70;;
42972;SDS011;28610;51.214;6.962;2023-04-15T15:30:00;7.63;;;4.50;;
42972;SDS011;28610;51.214;6.962;2023-04-15T15:32:46;7.87;;;4.73;;
42972;SDS011;28610;51.214;6.962;2023-04-15T15:35:33;6.83;;;4.47;;
42972;SDS011;28610;51.214;6.962;2023-04-15T15:38:18;8.43;;;5.00;;
42972;SDS011;28610;51.214;6.962;2023-04-15T15:41:04;8.07;;;4.60;;
42972;SDS011;28610;51.214;6.962;2023-04-15T15:43:50;6.03;;;4.37;;
42972;SDS011;28610;51.214;6.962;2023-04-15T15:46:35;8.43;;;4.80;;
42972;SDS011;28610;51.214;6.962;2023-04-15T15:49:21;5.60;;;4.33;;
42972;SDS011;28610;51.214;6.962;2023-04-15T15:52:09;7.63;;;4.47;;
42972;SDS011;28610;51.214;6.962;2023-04-15T15:54:55;8.87;;;4.57;;
42972;SDS011;28610;51.214;6.962;2023-04-15T15:57:41;8.43;;;5.23;;
42972;SDS011;28610;51.214;6.962;2023-04-15T16:00:27;7.93;;;5.43;;
42972;SDS011;28610;51.214;6.962;2023-04-15T16:03:12;8.67;;;5.10;;
42972;SDS011;28610;51.214;6.962;2023-04-15T16:05:58;8.20;;;5.30;;
42972;SDS011;28610;51.214;6.962;2023-04-15T16:08:45;9.33;;;5.50;;
42972;SDS011;28610;51.214;6.962;2023-04-15T16:11:30;10.87;;;5.60;;
42972;SDS011;28610;51.214;6.962;2023-04-15T16:14:16;11.67;;;5.90;;
42972;SDS011;28610;51.214;6.962;2023-04-15T16:17:02;8.83;;;6.63;;
42972;SDS011;28610;51.214;6.962;2023-04-15T16:19:48;6.57;;;4.60;;
42972;SDS011;28610;51.214;6.962;2023-04-15T16:22:34;6.37;;;4.57;;
42972;SDS011;28610;51.214;6.962;2023-04-15T16:25:21;7.63;;;4.80;;
42972;SDS011;28610;51.214;6.962;2023-04-15T16:28:07;5.87;;;4.43;;
42972;SDS011;28610;51.214;6.962;2023-04-15T16:30:52;8.57;;;5.00;;